Huvudsida
METAR-TAF:

METAR-TAF

Flygplatser :

Antananarivo, Madagaskar

Ivato International Airport

latitud: 18-48S, longitud: 047-29E, höjd: 1279 m

Aktuellt väderrapport

Denna rapport gjordes för 23 minuter sedan, klockan 04:30 UTC
Stilla vind
Temperatur 19°C
Fuktighet 94%
Tryck 1017 hPa
Sikt 10 km eller mer
Få moln på en höjd av 600 ft
Brutna moln på en höjd av 2000 ft

METAR: FMMI 230430Z 00000KT 9999 FEW006 BKN020 19/18 Q1017 NOSIG

Tid: 07:53 (04:53 UTC)

Väderprognos

Denna rapport gjordes för 5 timmar och 53 minuter sedan, klockan 23:00 UTC
Prognos gäller från 23 kl. 00 UTC till 24 kl. 06 UTC
Vind 5 kt varierande vindriktning
Sikt 10 km eller mer
Få moln på en höjd av 700 ft
Brutna moln på en höjd av 2000 ft
Temporärt
från 23 kl. 11 UTC till 23 kl. 24 UTC
Vind 15 kt varierande vindriktning i byarna ända upp till 25 kt
Sikt: 3000 m
åska, regn

TAF: FMMI 222300Z 2300/2406 VRB05KT 9999 FEW007 BKN020 TEMPO 2311/2324 VRB15G25KT 3000 TSRA

Aktuella väderrapporter och prognoser från 4000 flygplatser (METAR- och TAF-rapporter).

De tillgängliga stationerna syns som gula och röda prickar på kartan.

För musen över prickarna för att se namnen på stationerna.

Klicka sedan för att få väderrapporter och prognoser.

För att ändra kartan: Klicka på de gröna knapparna med ett svart kors på för att zooma in; den gröna knappen med ett streck på för att zooma ut; eller på de gröna pilarna för angränsande kartor.


METAR-TAF: